Main page
METAR-TAF:

METAR-TAF

Airports :

Olney-Noble Airport

Olney-Noble, Illinois, United States

latitude: 38-43-19N, longitude: 088-10-35W, elevation: 482 ft

Current weather observation

The report was made 39 minutes ago, at 11:55 UTC
Wind 9 mph from the North/Northeast
Temperature 36°F
Humidity 93%
Pressure 30.05 in. Hg
Visibility: 5 miles
Broken clouds at a height of 400 ft
mist

METAR: KOLY 011155Z AUTO 02008KT 5SM BR BKN004 02/01 A3005 RMK AO2 T00200014 10030 20017

Time: 07:34 (12:34 UTC)


TAF: missing

Weather observations and forecasts of more than 4000 airports (METAR and TAF reports).

The available stations are represented by yellow and red dots on the map.

Hover mouse over dot to see the name of the station.

Then click to see weather observations and forecasts.

To change the map : click on the green buttons with a black cross to zoom in, on the green button with a dash to zoom out, or on the green arrows for adjacent maps.


METAR-TAF: